Time;durP1;ratioP1;P1;durP2;ratioP2;P2;SDS_P1;SDS_P2;PMS_P1;PMS_P2;Temp;Humidity;BMP_temperature;BMP_pressure;BME280_temperature;BME280_humidity;BME280_pressure;Samples;Min_cycle;Max_cycle;Signal;HPM_P1;HPM_P2
2022/06/30 00:01:41;;;;;;;;;;;22.30;96.90;;;;;;5064825;28;19924;-76
2022/06/30 00:04:08;;;;;;;;;;;22.30;96.90;;;;;;5048239;28;19924;-77
2022/06/30 00:06:35;;;;;;;;;;;22.20;96.80;;;;;;5068611;28;19932;-78
2022/06/30 00:09:02;;;;;;;;;;;22.20;96.90;;;;;;5069795;28;20306;-77
2022/06/30 00:11:30;;;;;;;;;;;22.20;96.90;;;;;;5060655;28;20221;-77
2022/06/30 00:13:57;;;;;;;;;;;22.20;96.90;;;;;;5043812;28;19936;-77
2022/06/30 00:16:24;;;;;;;;;;;22.10;96.90;;;;;;5063379;28;19951;-78
2022/06/30 00:18:51;;;;;;;;;;;22.10;96.90;;;;;;5062538;28;20337;-77
2022/06/30 00:21:18;;;;;;;;;;;22.10;96.90;;;;;;5043181;28;20360;-77
2022/06/30 00:23:45;;;;;;;;;;;22.10;96.90;;;;;;5061599;28;19986;-79
2022/06/30 00:26:12;;;;;;;;;;;22.10;96.90;;;;;;5063913;28;19962;-77
2022/06/30 00:28:40;;;;;;;;;;;22.00;96.90;;;;;;5037240;28;19932;-77
2022/06/30 00:31:07;;;;;;;;;;;22.00;96.90;;;;;;5047193;28;20302;-77
2022/06/30 00:33:34;;;;;;;;;;;22.00;96.90;;;;;;5046776;28;20410;-77
2022/06/30 00:36:01;;;;;;;;;;;22.00;96.90;;;;;;5061512;28;21485;-77
2022/06/30 00:38:28;;;;;;;;;;;22.00;96.90;;;;;;5057053;28;19975;-78
2022/06/30 00:40:54;;;;;;;;;;;21.90;96.90;;;;;;5064141;28;20340;-76
2022/06/30 00:43:21;;;;;;;;;;;21.90;96.90;;;;;;5065406;28;19947;-77
2022/06/30 00:45:50;;;;;;;;;;;21.90;96.90;;;;;;5063977;28;20259;-77
2022/06/30 00:48:18;;;;;;;;;;;21.90;97.00;;;;;;5068669;28;19928;-77
2022/06/30 00:50:45;;;;;;;;;;;21.90;97.00;;;;;;5046150;28;20025;-77
2022/06/30 00:53:12;;;;;;;;;;;21.80;96.90;;;;;;5043851;28;19924;-77
2022/06/30 00:55:39;;;;;;;;;;;21.80;96.90;;;;;;5064786;28;19997;-76
2022/06/30 00:58:07;;;;;;;;;;;21.80;97.20;;;;;;5067859;28;19960;-77
2022/06/30 01:00:35;;;;;;;;;;;21.80;96.90;;;;;;5040292;28;19991;-77
2022/06/30 01:03:04;;;;;;;;;;;21.70;96.90;;;;;;5066699;28;19928;-76
2022/06/30 01:05:31;;;;;;;;;;;21.70;96.90;;;;;;5065264;28;20288;-77
2022/06/30 01:07:59;;;;;;;;;;;21.70;96.90;;;;;;5045229;28;19933;-77
2022/06/30 01:13:10;;;;;;;;;;;21.70;96.90;;;;;;5057952;28;19920;-77
2022/06/30 01:15:36;;;;;;;;;;;21.70;96.90;;;;;;5056550;28;19929;-78
2022/06/30 01:18:05;;;;;;;;;;;21.60;96.80;;;;;;5060611;28;19941;-77
2022/06/30 01:20:32;;;;;;;;;;;21.60;96.90;;;;;;5065117;28;19974;-76
2022/06/30 01:23:01;;;;;;;;;;;21.60;96.90;;;;;;5044511;28;20484;-77
2022/06/30 01:25:28;;;;;;;;;;;21.60;96.90;;;;;;5045614;28;20378;-77
2022/06/30 01:27:55;;;;;;;;;;;21.60;97.20;;;;;;5039263;28;19931;-78
2022/06/30 01:30:23;;;;;;;;;;;21.50;96.90;;;;;;5062051;28;19989;-77
2022/06/30 01:32:50;;;;;;;;;;;21.50;96.90;;;;;;5046244;28;19924;-77
2022/06/30 01:35:17;;;;;;;;;;;21.50;96.90;;;;;;5067407;28;19925;-77
2022/06/30 01:37:44;;;;;;;;;;;21.50;96.90;;;;;;5057043;28;20227;-77
2022/06/30 01:40:12;;;;;;;;;;;21.50;97.00;;;;;;5054365;28;19931;-76
2022/06/30 01:42:39;;;;;;;;;;;21.50;97.00;;;;;;5040569;28;19925;-77
2022/06/30 01:45:06;;;;;;;;;;;21.50;97.00;;;;;;5061876;28;19929;-76
2022/06/30 01:47:33;;;;;;;;;;;21.40;97.00;;;;;;5060948;28;20382;-78
2022/06/30 01:50:00;;;;;;;;;;;21.40;97.00;;;;;;5043970;28;19946;-76
2022/06/30 01:52:27;;;;;;;;;;;21.40;97.00;;;;;;5063988;28;19932;-75
2022/06/30 01:54:54;;;;;;;;;;;21.30;97.00;;;;;;5055124;28;19928;-76
2022/06/30 01:57:22;;;;;;;;;;;21.30;97.00;;;;;;5063521;28;19924;-76
2022/06/30 01:59:49;;;;;;;;;;;21.30;97.00;;;;;;5063620;28;19985;-76
2022/06/30 02:02:16;;;;;;;;;;;21.30;97.00;;;;;;5059059;28;20386;-76
2022/06/30 02:04:50;;;;;;;;;;;21.30;97.00;;;;;;5059188;28;19924;-75
2022/06/30 02:07:17;;;;;;;;;;;21.20;97.00;;;;;;5045945;28;19924;-76
2022/06/30 02:09:45;;;;;;;;;;;21.30;97.10;;;;;;5061463;28;19933;-76
2022/06/30 02:14:57;;;;;;;;;;;21.20;97.00;;;;;;5062867;28;20019;-78
2022/06/30 02:17:24;;;;;;;;;;;21.20;97.10;;;;;;5061681;28;19929;-77
2022/06/30 02:19:51;;;;;;;;;;;21.20;97.10;;;;;;5040113;28;20025;-77
2022/06/30 02:22:18;;;;;;;;;;;21.10;97.10;;;;;;5048755;28;20302;-78
2022/06/30 02:24:45;;;;;;;;;;;21.10;97.10;;;;;;5040000;28;19931;-76
2022/06/30 02:27:12;;;;;;;;;;;21.10;97.10;;;;;;5042292;28;20000;-76
2022/06/30 02:29:38;;;;;;;;;;;21.10;97.20;;;;;;5069425;28;19932;-76
2022/06/30 02:32:08;;;;;;;;;;;21.00;97.10;;;;;;5042610;28;19960;-77
2022/06/30 02:34:35;;;;;;;;;;;21.00;97.10;;;;;;5062351;28;19935;-77
2022/06/30 02:37:01;;;;;;;;;;;21.00;97.10;;;;;;5062447;28;20414;-77
2022/06/30 02:39:28;;;;;;;;;;;21.00;97.20;;;;;;5064379;28;19924;-77
2022/06/30 02:41:55;;;;;;;;;;;21.00;97.20;;;;;;5061096;28;20455;-77
2022/06/30 02:44:22;;;;;;;;;;;21.00;97.20;;;;;;5060150;28;20361;-77
2022/06/30 02:46:50;;;;;;;;;;;20.90;97.10;;;;;;5063218;28;19932;-76
2022/06/30 02:49:19;;;;;;;;;;;20.90;97.10;;;;;;5050146;28;19977;-77
2022/06/30 02:51:45;;;;;;;;;;;20.90;97.10;;;;;;5040360;28;20325;-77
2022/06/30 02:54:12;;;;;;;;;;;20.90;97.20;;;;;;5061299;28;19929;-76
2022/06/30 02:56:39;;;;;;;;;;;20.90;97.20;;;;;;5041357;28;19981;-77
2022/06/30 02:59:06;;;;;;;;;;;20.80;97.10;;;;;;5053495;28;19931;-78
2022/06/30 03:01:33;;;;;;;;;;;20.80;97.10;;;;;;5058081;28;19946;-77
2022/06/30 03:04:02;;;;;;;;;;;20.80;97.10;;;;;;5064639;28;19978;-77
2022/06/30 03:06:30;;;;;;;;;;;20.80;97.10;;;;;;5064518;28;19972;-77
2022/06/30 03:08:57;;;;;;;;;;;20.80;97.10;;;;;;5067600;28;19928;-76
2022/06/30 03:11:24;;;;;;;;;;;20.70;97.10;;;;;;5056931;28;20310;-77
2022/06/30 03:13:50;;;;;;;;;;;20.70;97.20;;;;;;5042407;28;20489;-77
2022/06/30 03:16:17;;;;;;;;;;;20.70;97.20;;;;;;5061876;28;19928;-77
2022/06/30 03:18:45;;;;;;;;;;;20.70;97.20;;;;;;5060871;28;19928;-77
2022/06/30 03:21:12;;;;;;;;;;;20.60;97.20;;;;;;5047478;28;19924;-78
2022/06/30 03:23:40;;;;;;;;;;;20.60;97.20;;;;;;5056321;28;19936;-77
2022/06/30 03:26:07;;;;;;;;;;;20.60;97.20;;;;;;5068620;28;19931;-77
2022/06/30 03:28:34;;;;;;;;;;;20.60;97.20;;;;;;5051374;28;20390;-78
2022/06/30 03:31:01;;;;;;;;;;;20.60;97.20;;;;;;5044570;28;20407;-78
2022/06/30 03:33:28;;;;;;;;;;;20.50;97.30;;;;;;5062076;28;19956;-77
2022/06/30 03:35:55;;;;;;;;;;;20.50;97.30;;;;;;5065939;28;19925;-76
2022/06/30 03:38:22;;;;;;;;;;;20.50;97.30;;;;;;5067220;28;19932;-77
2022/06/30 03:40:50;;;;;;;;;;;20.50;97.30;;;;;;5060408;28;19925;-76
2022/06/30 03:43:18;;;;;;;;;;;20.40;97.20;;;;;;5043490;28;19929;-76
2022/06/30 03:45:45;;;;;;;;;;;20.40;97.30;;;;;;5065024;28;20391;-76
2022/06/30 03:48:12;;;;;;;;;;;20.40;97.20;;;;;;5048832;28;19934;-77
2022/06/30 03:50:39;;;;;;;;;;;20.40;97.20;;;;;;5066007;28;20341;-78
2022/06/30 03:53:06;;;;;;;;;;;20.40;97.20;;;;;;5063890;28;19925;-78
2022/06/30 03:55:33;;;;;;;;;;;20.30;97.20;;;;;;5066424;28;19975;-77
2022/06/30 03:58:02;;;;;;;;;;;20.30;97.20;;;;;;5062304;28;19924;-76
2022/06/30 04:00:28;;;;;;;;;;;20.30;97.20;;;;;;5048679;28;19931;-77
2022/06/30 04:02:55;;;;;;;;;;;20.30;97.20;;;;;;5062321;28;19990;-77
2022/06/30 04:05:22;;;;;;;;;;;20.30;97.20;;;;;;5056489;28;19933;-76
2022/06/30 04:07:49;;;;;;;;;;;20.30;97.20;;;;;;5069316;28;19924;-77
2022/06/30 04:10:18;;;;;;;;;;;20.20;97.20;;;;;;5061153;28;19933;-78
2022/06/30 04:12:45;;;;;;;;;;;20.20;97.20;;;;;;5058242;28;19928;-76
2022/06/30 04:15:13;;;;;;;;;;;20.20;97.20;;;;;;5064602;28;20290;-79
2022/06/30 04:17:40;;;;;;;;;;;20.20;97.30;;;;;;5065652;28;19925;-75
2022/06/30 04:20:15;;;;;;;;;;;20.20;97.30;;;;;;5064258;28;19978;-77
2022/06/30 04:22:43;;;;;;;;;;;20.10;97.20;;;;;;5060462;28;19936;-78
2022/06/30 04:25:11;;;;;;;;;;;20.10;97.20;;;;;;5071147;28;20287;-78
2022/06/30 04:27:41;;;;;;;;;;;20.10;97.20;;;;;;5056351;28;19982;-76
2022/06/30 04:30:08;;;;;;;;;;;20.10;97.30;;;;;;5065086;28;20357;-78
2022/06/30 04:32:38;;;;;;;;;;;20.10;97.20;;;;;;5045619;28;19928;-79
2022/06/30 04:35:06;;;;;;;;;;;20.00;97.20;;;;;;5066159;28;20331;-77
2022/06/30 04:37:32;;;;;;;;;;;20.00;97.20;;;;;;5058413;28;19925;-75
2022/06/30 04:42:43;;;;;;;;;;;20.00;97.20;;;;;;5045084;28;19925;-76
2022/06/30 04:45:11;;;;;;;;;;;20.00;97.30;;;;;;5057991;28;19932;-77
2022/06/30 04:47:39;;;;;;;;;;;20.00;97.30;;;;;;5041092;28;19928;-79
2022/06/30 04:50:07;;;;;;;;;;;19.90;97.30;;;;;;5066068;28;19963;-82
2022/06/30 04:52:34;;;;;;;;;;;19.90;97.40;;;;;;5058770;28;19925;-81
2022/06/30 04:55:00;;;;;;;;;;;19.90;97.40;;;;;;5065018;28;19998;-78
2022/06/30 04:57:27;;;;;;;;;;;19.90;97.40;;;;;;5058331;28;20445;-78
2022/06/30 04:59:54;;;;;;;;;;;19.90;97.20;;;;;;5047289;28;19924;-79
2022/06/30 05:02:21;;;;;;;;;;;19.90;97.10;;;;;;5061668;28;19924;-78
2022/06/30 05:04:49;;;;;;;;;;;19.80;97.00;;;;;;5056042;28;19951;-79
2022/06/30 05:07:17;;;;;;;;;;;19.80;96.80;;;;;;5062864;28;20284;-78
2022/06/30 05:09:45;;;;;;;;;;;19.70;97.10;;;;;;5067005;28;19986;-80
2022/06/30 05:12:12;;;;;;;;;;;19.60;97.30;;;;;;5049005;28;19925;-80
2022/06/30 05:14:39;;;;;;;;;;;19.60;97.90;;;;;;5066581;28;19931;-79
2022/06/30 05:17:06;;;;;;;;;;;19.60;97.90;;;;;;5068094;28;19951;-83
2022/06/30 05:19:33;;;;;;;;;;;19.60;98.40;;;;;;5063131;28;19986;-79
2022/06/30 05:22:02;;;;;;;;;;;19.70;99.00;;;;;;5062597;28;19937;-77
2022/06/30 05:27:13;;;;;;;;;;;19.70;99.30;;;;;;5061368;28;19920;-79
2022/06/30 05:29:40;;;;;;;;;;;19.80;99.30;;;;;;5047417;28;19924;-77
2022/06/30 05:32:07;;;;;;;;;;;19.80;99.30;;;;;;5044553;28;19924;-77
2022/06/30 05:34:34;;;;;;;;;;;19.80;99.20;;;;;;5059429;28;19925;-78
2022/06/30 05:37:04;;;;;;;;;;;19.70;99.10;;;;;;5063208;28;20417;-78
2022/06/30 05:39:32;;;;;;;;;;;19.80;99.00;;;;;;5048128;28;19944;-77
2022/06/30 05:41:59;;;;;;;;;;;19.80;99.00;;;;;;5062337;28;20445;-77
2022/06/30 05:44:26;;;;;;;;;;;19.80;98.90;;;;;;5064192;28;19962;-78
2022/06/30 05:46:54;;;;;;;;;;;19.80;98.90;;;;;;5061239;28;20321;-77
2022/06/30 05:49:21;;;;;;;;;;;19.80;98.80;;;;;;5057433;28;19925;-78
2022/06/30 05:51:48;;;;;;;;;;;19.80;98.90;;;;;;5062745;28;19925;-78
2022/06/30 05:54:16;;;;;;;;;;;19.80;98.90;;;;;;5061964;28;19976;-78
2022/06/30 05:56:43;;;;;;;;;;;19.80;98.90;;;;;;5062156;28;20252;-82
2022/06/30 05:59:09;;;;;;;;;;;19.80;99.00;;;;;;5063284;28;19924;-78
2022/06/30 06:01:36;;;;;;;;;;;19.90;99.10;;;;;;5061285;28;19933;-79
2022/06/30 06:04:03;;;;;;;;;;;19.90;99.10;;;;;;5041630;28;19932;-81
2022/06/30 06:06:30;;;;;;;;;;;19.90;99.10;;;;;;5060982;28;19924;-78
2022/06/30 06:08:57;;;;;;;;;;;19.90;99.10;;;;;;5047999;28;19967;-77
2022/06/30 06:11:25;;;;;;;;;;;19.90;99.10;;;;;;5064407;28;19947;-78
2022/06/30 06:13:52;;;;;;;;;;;20.00;99.20;;;;;;5058245;28;19983;-77
2022/06/30 06:16:19;;;;;;;;;;;20.00;99.20;;;;;;5065139;28;20473;-78
2022/06/30 06:18:46;;;;;;;;;;;20.00;99.40;;;;;;5046058;28;20349;-78
2022/06/30 06:21:13;;;;;;;;;;;20.00;99.30;;;;;;5047548;28;19932;-78
2022/06/30 06:23:40;;;;;;;;;;;20.00;99.20;;;;;;5069332;28;19955;-78
2022/06/30 06:26:06;;;;;;;;;;;20.10;99.30;;;;;;5059356;28;20275;-78
2022/06/30 06:31:19;;;;;;;;;;;20.00;99.30;;;;;;5045475;28;19928;-79
2022/06/30 06:33:48;;;;;;;;;;;20.10;99.50;;;;;;5059903;28;19925;-77
2022/06/30 06:36:15;;;;;;;;;;;20.10;99.60;;;;;;5058965;28;19935;-79
2022/06/30 06:38:41;;;;;;;;;;;20.10;99.80;;;;;;5065764;28;19925;-79
2022/06/30 06:41:09;;;;;;;;;;;20.10;99.60;;;;;;5058465;28;19924;-79
2022/06/30 06:43:37;;;;;;;;;;;20.20;99.70;;;;;;5063460;28;20011;-77
2022/06/30 06:46:04;;;;;;;;;;;20.20;99.80;;;;;;5046383;28;19925;-77
2022/06/30 06:48:31;;;;;;;;;;;20.20;99.80;;;;;;5057952;28;19925;-79
2022/06/30 06:50:57;;;;;;;;;;;20.30;99.90;;;;;;5063582;28;19925;-80
2022/06/30 06:53:24;;;;;;;;;;;20.30;99.90;;;;;;5044397;28;19925;-80
2022/06/30 06:55:51;;;;;;;;;;;20.30;99.90;;;;;;5057965;28;19947;-78
2022/06/30 06:58:18;;;;;;;;;;;20.30;99.90;;;;;;5057572;28;20387;-80
2022/06/30 07:00:46;;;;;;;;;;;20.40;99.90;;;;;;5044919;28;20024;-79
2022/06/30 07:03:13;;;;;;;;;;;20.40;99.90;;;;;;5057932;28;19932;-80
2022/06/30 07:05:40;;;;;;;;;;;20.40;99.90;;;;;;5043271;28;20019;-79
2022/06/30 07:08:07;;;;;;;;;;;20.40;99.90;;;;;;5064814;28;19925;-78
2022/06/30 07:10:34;;;;;;;;;;;20.40;99.90;;;;;;5065586;28;19933;-80
2022/06/30 07:13:01;;;;;;;;;;;20.50;99.90;;;;;;5043535;28;19931;-79
2022/06/30 07:15:27;;;;;;;;;;;20.50;99.90;;;;;;5048001;28;19928;-80
2022/06/30 07:17:56;;;;;;;;;;;20.50;99.90;;;;;;5068664;28;19933;-79
2022/06/30 07:20:23;;;;;;;;;;;20.60;99.90;;;;;;5063951;28;19929;-79
2022/06/30 07:22:50;;;;;;;;;;;20.60;99.90;;;;;;5061443;28;20338;-78
2022/06/30 07:25:17;;;;;;;;;;;20.60;99.90;;;;;;5066637;28;20402;-80
2022/06/30 07:27:44;;;;;;;;;;;20.70;99.90;;;;;;5064108;28;19924;-78
2022/06/30 07:30:12;;;;;;;;;;;20.70;99.90;;;;;;5063388;28;19940;-80
2022/06/30 07:32:39;;;;;;;;;;;20.70;99.90;;;;;;5065614;28;19978;-79
2022/06/30 07:35:08;;;;;;;;;;;20.80;99.90;;;;;;5069800;28;19924;-79
2022/06/30 07:37:37;;;;;;;;;;;20.80;99.90;;;;;;5066549;28;19924;-78
2022/06/30 07:40:04;;;;;;;;;;;20.80;99.90;;;;;;5063101;28;19964;-80
2022/06/30 07:42:31;;;;;;;;;;;20.90;99.90;;;;;;5045292;22;19957;-79
2022/06/30 07:44:58;;;;;;;;;;;20.90;99.90;;;;;;5006337;28;20380;-79
2022/06/30 07:47:25;;;;;;;;;;;20.90;99.90;;;;;;5010634;28;19939;-79
2022/06/30 07:49:51;;;;;;;;;;;21.00;99.90;;;;;;5012206;28;19929;-79
2022/06/30 07:52:20;;;;;;;;;;;21.00;99.90;;;;;;5011225;28;20429;-78
2022/06/30 07:54:47;;;;;;;;;;;21.00;99.90;;;;;;5010629;28;19925;-79
2022/06/30 07:57:14;;;;;;;;;;;21.10;99.90;;;;;;5012212;28;19933;-78
2022/06/30 07:59:41;;;;;;;;;;;21.10;99.90;;;;;;5011362;28;20004;-79
2022/06/30 08:02:08;;;;;;;;;;;21.20;99.90;;;;;;5003844;28;19931;-80
2022/06/30 08:04:35;;;;;;;;;;;21.20;99.90;;;;;;5006034;28;20288;-78
2022/06/30 08:07:03;;;;;;;;;;;21.20;99.90;;;;;;5009198;28;19929;-78
2022/06/30 08:09:31;;;;;;;;;;;21.20;99.90;;;;;;5006411;28;19925;-79
2022/06/30 08:11:59;;;;;;;;;;;21.30;99.90;;;;;;5005988;28;19925;-78
2022/06/30 08:14:26;;;;;;;;;;;21.30;99.90;;;;;;5008172;28;19961;-80
2022/06/30 08:16:52;;;;;;;;;;;21.30;99.90;;;;;;5011982;28;19925;-78
2022/06/30 08:19:20;;;;;;;;;;;21.30;99.90;;;;;;5013414;28;19956;-80
2022/06/30 08:21:47;;;;;;;;;;;21.30;99.90;;;;;;5005159;28;19983;-78
2022/06/30 08:24:14;;;;;;;;;;;21.30;99.90;;;;;;5007318;28;20257;-78
2022/06/30 08:26:42;;;;;;;;;;;21.30;99.90;;;;;;5075283;22;20260;-78
2022/06/30 08:29:12;;;;;;;;;;;21.40;99.90;;;;;;5009002;28;19926;-77
2022/06/30 08:31:38;;;;;;;;;;;21.40;99.90;;;;;;5005945;28;20320;-76
2022/06/30 08:34:05;;;;;;;;;;;21.40;99.90;;;;;;4991442;28;19925;-77
2022/06/30 08:36:32;;;;;;;;;;;21.40;99.90;;;;;;5004832;28;20418;-76
2022/06/30 08:38:59;;;;;;;;;;;21.40;99.90;;;;;;5009555;28;19925;-79
2022/06/30 08:44:12;;;;;;;;;;;21.50;99.90;;;;;;5010168;28;19925;-81
2022/06/30 08:46:39;;;;;;;;;;;21.50;99.90;;;;;;5010526;28;19930;-77
2022/06/30 08:49:06;;;;;;;;;;;21.50;99.90;;;;;;5002723;28;19940;-77
2022/06/30 08:51:35;;;;;;;;;;;21.60;99.90;;;;;;5005614;28;19933;-78
2022/06/30 08:54:02;;;;;;;;;;;21.80;99.90;;;;;;5001256;28;19933;-78
2022/06/30 08:56:30;;;;;;;;;;;21.80;99.90;;;;;;4988315;28;19945;-77
2022/06/30 08:58:58;;;;;;;;;;;21.80;99.90;;;;;;5006437;28;20016;-79
2022/06/30 09:01:27;;;;;;;;;;;21.70;99.90;;;;;;5014580;28;19926;-78
2022/06/30 09:03:55;;;;;;;;;;;21.70;99.90;;;;;;5012636;28;19925;-79
2022/06/30 09:06:21;;;;;;;;;;;21.70;99.90;;;;;;5015420;28;19937;-77
2022/06/30 09:08:48;;;;;;;;;;;21.70;99.90;;;;;;4997842;28;19929;-78
2022/06/30 09:11:15;;;;;;;;;;;21.70;99.90;;;;;;5001675;28;19933;-78
2022/06/30 09:13:43;;;;;;;;;;;21.70;99.90;;;;;;5017511;28;19983;-80
2022/06/30 09:16:10;;;;;;;;;;;21.70;99.90;;;;;;5011520;28;20400;-79
2022/06/30 09:18:41;;;;;;;;;;;21.70;99.90;;;;;;5014070;28;19926;-78
2022/06/30 09:21:09;;;;;;;;;;;21.80;99.90;;;;;;5012476;28;20351;-78
2022/06/30 09:23:36;;;;;;;;;;;21.80;99.90;;;;;;5010212;28;21167;-78
2022/06/30 09:26:03;;;;;;;;;;;21.80;99.90;;;;;;5013618;28;20067;-78
2022/06/30 09:28:41;;;;;;;;;;;21.80;99.90;;;;;;5014355;28;19925;-79
2022/06/30 09:31:08;;;;;;;;;;;21.80;99.90;;;;;;5010545;28;19930;-77
2022/06/30 09:33:36;;;;;;;;;;;21.90;99.90;;;;;;5014824;28;19959;-79
2022/06/30 09:36:17;;;;;;;;;;;21.90;99.90;;;;;;5016787;28;19929;-78
2022/06/30 09:38:58;;;;;;;;;;;21.90;99.90;;;;;;5002466;28;19941;-79
2022/06/30 09:41:28;;;;;;;;;;;21.90;99.90;;;;;;5009171;28;20095;-78
2022/06/30 09:43:56;;;;;;;;;;;21.90;99.90;;;;;;5011284;28;19972;-79
2022/06/30 09:46:23;;;;;;;;;;;21.90;99.90;;;;;;4994905;28;20114;-78
2022/06/30 09:48:50;;;;;;;;;;;22.00;99.90;;;;;;5013445;28;19932;-77
2022/06/30 09:51:17;;;;;;;;;;;22.00;99.90;;;;;;5012257;28;19940;-78
2022/06/30 09:54:04;;;;;;;;;;;22.00;99.90;;;;;;5013614;28;19932;-77
2022/06/30 09:56:32;;;;;;;;;;;22.00;99.90;;;;;;5011955;28;19926;-78
2022/06/30 09:58:59;;;;;;;;;;;22.00;99.90;;;;;;5011924;28;19932;-78
2022/06/30 10:01:26;;;;;;;;;;;22.00;99.90;;;;;;4991595;28;19971;-79
2022/06/30 10:03:59;;;;;;;;;;;22.00;99.90;;;;;;5013601;28;19933;-78
2022/06/30 10:06:26;;;;;;;;;;;22.10;99.90;;;;;;5016636;28;19930;-78
2022/06/30 10:08:54;;;;;;;;;;;22.10;99.90;;;;;;5013749;28;19929;-78
2022/06/30 10:11:21;;;;;;;;;;;22.10;99.80;;;;;;5009447;28;19925;-77
2022/06/30 10:13:49;;;;;;;;;;;22.10;99.80;;;;;;4995858;28;19930;-79
2022/06/30 10:16:17;;;;;;;;;;;22.10;99.70;;;;;;5013832;28;20624;-79
2022/06/30 10:18:44;;;;;;;;;;;22.10;99.70;;;;;;5006170;28;19933;-79
2022/06/30 10:21:11;;;;;;;;;;;22.20;99.70;;;;;;5015120;28;19949;-77
2022/06/30 10:23:38;;;;;;;;;;;22.20;99.60;;;;;;5012538;28;19967;-77
2022/06/30 10:26:06;;;;;;;;;;;22.20;99.60;;;;;;4991654;28;19933;-78
2022/06/30 10:28:33;;;;;;;;;;;22.20;99.50;;;;;;5013998;28;20455;-77
2022/06/30 10:31:03;;;;;;;;;;;22.20;99.40;;;;;;5009807;28;19933;-79
2022/06/30 10:33:34;;;;;;;;;;;22.20;99.20;;;;;;5013280;28;20447;-79
2022/06/30 10:36:05;;;;;;;;;;;22.30;99.20;;;;;;5010712;28;19940;-77
2022/06/30 10:38:35;;;;;;;;;;;22.20;99.20;;;;;;4996576;28;19980;-78
2022/06/30 10:41:07;;;;;;;;;;;22.30;99.20;;;;;;5009401;28;19933;-79
2022/06/30 10:43:33;;;;;;;;;;;22.30;99.20;;;;;;5015911;28;19973;-78
2022/06/30 10:46:05;;;;;;;;;;;22.30;99.20;;;;;;5009099;28;20443;-79
2022/06/30 10:48:46;;;;;;;;;;;22.30;99.10;;;;;;5014682;28;20008;-78
2022/06/30 10:51:14;;;;;;;;;;;22.30;99.10;;;;;;5007318;28;20405;-80
2022/06/30 10:54:06;;;;;;;;;;;22.40;99.00;;;;;;4995596;28;19926;-79
2022/06/30 10:56:47;;;;;;;;;;;22.40;98.90;;;;;;4994426;28;19933;-79
2022/06/30 10:59:14;;;;;;;;;;;22.40;98.80;;;;;;5008468;28;20385;-79
2022/06/30 11:02:02;;;;;;;;;;;22.40;98.80;;;;;;5009649;28;19926;-79
2022/06/30 11:04:29;;;;;;;;;;;22.40;98.70;;;;;;5007581;28;19933;-78
2022/06/30 11:06:57;;;;;;;;;;;22.40;98.70;;;;;;5011350;28;19941;-79
2022/06/30 11:09:43;;;;;;;;;;;22.40;98.70;;;;;;5007512;28;19930;-79
2022/06/30 11:12:10;;;;;;;;;;;22.50;98.70;;;;;;5009967;28;19988;-79
2022/06/30 11:14:37;;;;;;;;;;;22.50;98.60;;;;;;5013782;28;19930;-79
2022/06/30 11:17:15;;;;;;;;;;;22.50;98.70;;;;;;5013196;28;19961;-79
2022/06/30 11:19:42;;;;;;;;;;;22.50;98.60;;;;;;5009763;28;19933;-79
2022/06/30 11:22:09;;;;;;;;;;;22.50;98.60;;;;;;4995083;28;19965;-78
2022/06/30 11:24:38;;;;;;;;;;;22.60;98.60;;;;;;5015211;28;19925;-79
2022/06/30 11:27:22;;;;;;;;;;;22.60;98.30;;;;;;5018908;28;19932;-80
2022/06/30 11:29:49;;;;;;;;;;;22.60;98.30;;;;;;5008536;28;19925;-78
2022/06/30 11:32:22;;;;;;;;;;;22.60;98.20;;;;;;4996138;28;19934;-78
2022/06/30 11:34:49;;;;;;;;;;;22.60;98.10;;;;;;5010216;28;19929;-76
2022/06/30 11:37:20;;;;;;;;;;;22.60;98.10;;;;;;5014304;28;19926;-78
2022/06/30 11:39:47;;;;;;;;;;;22.70;98.00;;;;;;4997453;28;19929;-78
2022/06/30 11:42:14;;;;;;;;;;;22.70;98.00;;;;;;5013459;28;19933;-79
2022/06/30 11:44:41;;;;;;;;;;;22.70;97.90;;;;;;5002166;28;19926;-79
2022/06/30 11:47:10;;;;;;;;;;;22.80;97.90;;;;;;4999031;28;19930;-79
2022/06/30 11:49:43;;;;;;;;;;;22.80;97.90;;;;;;5019893;28;19929;-77
2022/06/30 11:52:10;;;;;;;;;;;22.80;98.00;;;;;;5015095;28;19933;-78
2022/06/30 11:54:37;;;;;;;;;;;22.80;98.10;;;;;;5013574;28;20366;-79
2022/06/30 11:57:04;;;;;;;;;;;22.90;98.20;;;;;;5009979;28;19929;-78
2022/06/30 11:59:31;;;;;;;;;;;22.90;98.30;;;;;;5014799;28;19926;-79
2022/06/30 12:02:01;;;;;;;;;;;22.90;98.30;;;;;;5008616;28;19933;-78
2022/06/30 12:04:28;;;;;;;;;;;22.90;98.30;;;;;;5012693;28;19930;-77
2022/06/30 12:06:56;;;;;;;;;;;23.00;98.30;;;;;;5009582;28;19926;-78
2022/06/30 12:09:23;;;;;;;;;;;23.00;98.40;;;;;;4999592;28;19930;-78
2022/06/30 12:11:52;;;;;;;;;;;23.10;98.50;;;;;;5014455;28;19926;-77
2022/06/30 12:14:19;;;;;;;;;;;23.10;98.60;;;;;;5014740;28;20434;-77
2022/06/30 12:16:46;;;;;;;;;;;23.10;98.60;;;;;;5013716;28;19925;-79
2022/06/30 12:19:14;;;;;;;;;;;23.20;98.70;;;;;;5020523;28;19933;-78
2022/06/30 12:21:41;;;;;;;;;;;23.20;98.50;;;;;;5015455;28;19926;-80
2022/06/30 12:24:10;;;;;;;;;;;23.20;98.50;;;;;;5010607;28;19941;-75
2022/06/30 12:26:37;;;;;;;;;;;23.30;98.50;;;;;;4995362;28;19940;-79
2022/06/30 12:29:12;;;;;;;;;;;23.30;98.50;;;;;;5008773;28;19968;-80
2022/06/30 12:31:39;;;;;;;;;;;23.30;98.50;;;;;;5010816;28;19925;-77
2022/06/30 12:34:06;;;;;;;;;;;23.40;98.40;;;;;;5001736;28;19952;-79
2022/06/30 12:36:33;;;;;;;;;;;23.40;98.40;;;;;;5004712;28;19929;-78
2022/06/30 12:39:13;;;;;;;;;;;23.40;98.40;;;;;;5004645;28;19926;-78
2022/06/30 12:41:39;;;;;;;;;;;23.40;98.40;;;;;;5004257;28;20093;-79
2022/06/30 12:44:06;;;;;;;;;;;23.50;98.40;;;;;;5015667;28;19929;-77
2022/06/30 12:46:44;;;;;;;;;;;23.50;98.40;;;;;;5011168;28;19926;-78
2022/06/30 12:49:21;;;;;;;;;;;23.60;98.60;;;;;;5009602;28;19926;-77
2022/06/30 12:51:48;;;;;;;;;;;23.60;98.70;;;;;;5005485;28;19929;-78
2022/06/30 12:54:23;;;;;;;;;;;23.70;98.60;;;;;;4997304;28;20316;-77
2022/06/30 12:56:51;;;;;;;;;;;;;;;;;;5017963;28;19925;-77
2022/06/30 12:59:18;;;;;;;;;;;23.80;98.50;;;;;;5013476;28;19926;-78
2022/06/30 13:01:46;;;;;;;;;;;23.80;98.80;;;;;;5017919;28;19929;-78
2022/06/30 13:04:19;;;;;;;;;;;23.80;98.70;;;;;;5014965;28;20720;-79
2022/06/30 13:06:46;;;;;;;;;;;23.90;98.80;;;;;;4998712;28;19932;-79
2022/06/30 13:09:14;;;;;;;;;;;23.90;98.80;;;;;;5007018;28;20375;-79
2022/06/30 13:11:46;;;;;;;;;;;24.00;98.80;;;;;;5008260;28;20016;-78
2022/06/30 13:14:14;;;;;;;;;;;24.00;98.70;;;;;;5014870;28;20277;-78
2022/06/30 13:16:40;;;;;;;;;;;24.10;98.80;;;;;;5014014;28;19926;-79
2022/06/30 13:19:07;;;;;;;;;;;24.10;98.70;;;;;;5003177;28;20449;-78
2022/06/30 13:21:37;;;;;;;;;;;24.10;98.60;;;;;;5016030;28;20319;-77
2022/06/30 13:26:32;;;;;;;;;;;24.20;98.60;;;;;;4987081;28;20508;-79
2022/06/30 13:29:00;;;;;;;;;;;24.30;98.70;;;;;;4985170;28;19973;-79
2022/06/30 13:31:27;;;;;;;;;;;24.40;98.80;;;;;;4993624;28;19933;-79
2022/06/30 13:33:54;;;;;;;;;;;24.40;98.80;;;;;;4987830;28;19929;-80
2022/06/30 13:36:21;;;;;;;;;;;24.40;98.80;;;;;;4988189;28;19934;-79
2022/06/30 13:38:48;;;;;;;;;;;24.50;98.80;;;;;;4992500;28;19926;-81
2022/06/30 13:41:15;;;;;;;;;;;24.50;98.80;;;;;;4991851;28;19930;-79
2022/06/30 13:43:42;;;;;;;;;;;24.60;98.90;;;;;;5000259;23;19941;-80
2022/06/30 13:46:10;;;;;;;;;;;24.60;98.90;;;;;;5013200;28;19932;-80
2022/06/30 13:48:37;;;;;;;;;;;24.60;98.80;;;;;;5009943;28;19933;-80
2022/06/30 13:51:04;;;;;;;;;;;24.70;98.80;;;;;;4999536;28;19953;-80
2022/06/30 13:53:30;;;;;;;;;;;24.70;98.80;;;;;;4987015;28;19933;-80
2022/06/30 13:55:57;;;;;;;;;;;24.70;98.90;;;;;;4997592;28;20009;-80
2022/06/30 13:58:25;;;;;;;;;;;24.80;98.90;;;;;;4995676;28;19925;-80
2022/06/30 14:00:52;;;;;;;;;;;24.90;99.00;;;;;;4997317;28;20363;-80
2022/06/30 14:03:20;;;;;;;;;;;24.90;98.90;;;;;;5000420;28;19934;-80
2022/06/30 14:05:47;;;;;;;;;;;25.00;98.10;;;;;;5000162;28;19952;-78
2022/06/30 14:08:14;;;;;;;;;;;25.00;98.00;;;;;;4987823;28;20004;-78
2022/06/30 14:10:41;;;;;;;;;;;25.10;98.10;;;;;;4980717;28;20419;-79
2022/06/30 14:13:08;;;;;;;;;;;25.10;98.10;;;;;;5002422;28;19925;-79
2022/06/30 14:15:35;;;;;;;;;;;25.10;98.10;;;;;;4988679;28;19948;-78
2022/06/30 14:18:02;;;;;;;;;;;25.20;98.20;;;;;;4994224;28;19930;-79
2022/06/30 14:20:31;;;;;;;;;;;25.20;98.30;;;;;;5008438;28;19953;-78
2022/06/30 14:22:58;;;;;;;;;;;25.20;98.30;;;;;;4992675;28;19926;-78
2022/06/30 14:25:25;;;;;;;;;;;25.20;98.20;;;;;;4981376;28;19925;-79
2022/06/30 14:27:52;;;;;;;;;;;25.30;98.20;;;;;;4991438;28;19937;-79
2022/06/30 14:30:19;;;;;;;;;;;25.30;98.30;;;;;;5005496;28;19926;-78
2022/06/30 14:32:46;;;;;;;;;;;25.30;98.30;;;;;;5005624;28;19926;-79
2022/06/30 14:35:13;;;;;;;;;;;25.40;98.30;;;;;;4990930;28;19929;-79
2022/06/30 14:37:42;;;;;;;;;;;25.40;98.40;;;;;;4986554;28;19926;-79
2022/06/30 14:40:10;;;;;;;;;;;25.50;98.40;;;;;;4986096;28;19981;-79
2022/06/30 14:42:51;;;;;;;;;;;25.50;98.40;;;;;;4985859;28;19991;-78